Atmospheric History
05/19/2012 08:18  to  5/20/2012 08:18
Change End Date:
To complete the export process:
1) Select all of the data below
2) Copy the data to the clipboard
3) Open a word processor such as Notepad
4) Paste the data into the word processor
5) Save the file

Date/Time (MST), AirTemp, RH, Dewpoint ,AvgWindSpeed, GustWindSpeed, WindDirection, PrecipType, PrecipIntensity, PrecipAccumulation, PrecipRate
05/20/2012 08:11, 45, 60 , 31 ,2, 3, W, Yes, , ,  
05/20/2012 08:08, 45, 61 , 32 ,0, 0, SW, Yes, , ,  
05/20/2012 08:01, 44, 62 , 32 ,0, 0, SE, Yes, , ,  
05/20/2012 07:51, 42, 66 , 32 ,0, 0, SE, Yes, , ,  
05/20/2012 07:46, 42, 67 , 31 ,0, 0, SE, Yes, , ,  
05/20/2012 07:42, 41, 69 , 31 ,0, 0, SE, Yes, , ,  
05/20/2012 07:41, 40, 69 , 31 ,0, 0, SE, Yes, , ,  
05/20/2012 07:38, 40, 70 , 30 ,0, 0, SE, Yes, , ,  
05/20/2012 07:30, 39, 70 , 30 ,0, 0, W, Yes, , ,  
05/20/2012 07:20, 39, 72 , 31 ,0, 0, W, Yes, , ,  
05/20/2012 07:10, 37, 74 , 30 ,0, 1, SW, Yes, , ,  
05/20/2012 07:09, 37, 75 , 30 ,0, 1, SW, Yes, , ,  
05/20/2012 07:00, 36, 77 , 29 ,1, 2, S, Yes, , ,  
05/20/2012 06:54, 35, 77 , 29 ,2, 2, SE, Yes, , ,  
05/20/2012 06:49, 34, 78 , 28 ,2, 2, SE, Yes, , ,  
05/20/2012 06:48, 34, 78 , 28 ,2, 2, SE, Yes, , ,  
05/20/2012 06:39, 34, 78 , 28 ,0, 1, SW, Yes, , ,  
05/20/2012 06:29, 34, 78 , 28 ,2, 2, SW, Yes, , ,  
05/20/2012 06:19, 34, 78 , 28 ,1, 1, SE, Yes, , ,  
05/20/2012 06:09, 34, 78 , 28 ,1, 1, SE, Yes, , ,  
05/20/2012 05:59, 34, 77 , 27 ,1, 2, SE, Yes, , ,  
05/20/2012 05:50, 33, 77 , 27 ,0, 0, SW, Yes, , ,  
05/20/2012 05:48, 33, 77 , 27 ,0, 0, SW, Yes, , ,  
05/20/2012 05:38, 34, 76 , 27 ,0, 0, S, Yes, , ,  
05/20/2012 05:28, 34, 76 , 27 ,0, 0, S, Yes, , ,  
05/20/2012 05:17, 34, 75 , 27 ,0, 0, S, Yes, , ,  
05/20/2012 05:07, 34, 74 , 26 ,0, 0, S, Yes, , ,  
05/20/2012 04:58, 34, 73 , 26 ,1, 1, SW, Yes, , ,  
05/20/2012 04:57, 34, 73 , 26 ,1, 1, SW, Yes, , ,  
05/20/2012 04:47, 35, 73 , 27 ,2, 2, S, Yes, , ,  
05/20/2012 04:37, 35, 72 , 27 ,1, 2, SE, Yes, , ,  
05/20/2012 04:26, 34, 72 , 26 ,0, 1, SE, Yes, , ,  
05/20/2012 04:16, 36, 71 , 27 ,0, 1, SW, Yes, , ,  
05/20/2012 04:06, 36, 70 , 27 ,1, 2, S, Yes, , ,  
05/20/2012 03:56, 35, 69 , 26 ,1, 1, S, Yes, , ,  
05/20/2012 03:45, 36, 68 , 26 ,4, 4, S, Yes, , ,  
05/20/2012 03:35, 36, 67 , 26 ,0, 1, S, Yes, , ,  
05/20/2012 03:31, 36, 67 , 26 ,0, 0, S, Yes, , ,  
05/20/2012 03:25, 37, 66 , 26 ,2, 2, S, Yes, , ,  
05/20/2012 03:15, 38, 65 , 27 ,1, 1, S, Yes, , ,  
05/20/2012 03:05, 38, 65 , 27 ,1, 2, SW, Yes, , ,  
05/20/2012 02:53, 37, 64 , 26 ,2, 2, S, Yes, , ,  
05/20/2012 02:43, 38, 63 , 26 ,2, 2, S, Yes, , ,  
05/20/2012 02:35, 38, 61 , 26 ,1, 1, S, Yes, , ,  
05/20/2012 02:32, 39, 61 , 26 ,1, 2, S, Yes, , ,  
05/20/2012 02:22, 39, 60 , 26 ,2, 2, S, Yes, , ,  
05/20/2012 02:12, 39, 59 , 25 ,0, 0, SW, Yes, , ,  
05/20/2012 02:02, 40, 58 , 26 ,2, 2, SW, Yes, , ,  
05/20/2012 01:52, 40, 57 , 26 ,2, 3, SE, Yes, , ,  
05/20/2012 01:41, 41, 56 , 26 ,2, 2, SE, Yes, , ,  
05/20/2012 01:31, 40, 55 , 25 ,2, 2, S, Yes, , ,  
05/20/2012 01:22, 41, 53 , 25 ,2, 3, SW, Yes, , ,  
05/20/2012 01:21, 42, 53 , 25 ,3, 4, S, Yes, , ,  
05/20/2012 01:11, 42, 52 , 26 ,1, 2, SE, Yes, , ,  
05/20/2012 01:00, 42, 51 , 25 ,0, 1, SE, Yes, , ,  
05/20/2012 00:49, 43, 49 , 25 ,1, 3, SW, Yes, , ,  
05/20/2012 00:40, 44, 48 , 26 ,2, 2, SE, Yes, , ,  
05/20/2012 00:30, 45, 47 , 26 ,7, 8, NW, Yes, , ,  
05/20/2012 00:19, 48, 46 , 28 ,12, 14, NW, Yes, , ,  
05/20/2012 00:09, 47, 46 , 27 ,11, 12, N, Yes, , ,  
05/19/2012 23:59, 46, 45 , 26 ,9, 10, NW, Yes, , ,  
05/19/2012 23:54, 46, 44 , 26 ,9, 11, NW, Yes, , ,  
05/19/2012 23:49, 48, 44 , 27 ,11, 13, NW, Yes, , ,  
05/19/2012 23:39, 48, 43 , 26 ,9, 9, W, Yes, , ,  
05/19/2012 23:28, 48, 43 , 27 ,9, 10, NW, Yes, , ,  
05/19/2012 23:18, 47, 43 , 26 ,7, 7, NW, Yes, , ,  
05/19/2012 23:08, 48, 42 , 25 ,6, 7, NW, Yes, , ,  
05/19/2012 22:58, 49, 40 , 25 ,6, 7, W, Yes, , ,  
05/19/2012 22:47, 50, 39 , 26 ,6, 6, W, Yes, , ,  
05/19/2012 22:37, 51, 39 , 26 ,6, 7, W, Yes, , ,  
05/19/2012 22:27, 50, 38 , 25 ,4, 5, W, Yes, , ,  
05/19/2012 22:18, 52, 37 , 26 ,0, 0, N, Yes, , ,  
05/19/2012 22:14, 52, 37 , 26 ,6, 7, N, Yes, , ,  
05/19/2012 22:08, 53, 37 , 28 ,6, 7, N, Yes, , ,  
05/19/2012 21:57, 54, 36 , 27 ,9, 10, NW, Yes, , ,  
05/19/2012 21:47, 55, 36 , 28 ,9, 11, NW, Yes, , ,  
05/19/2012 21:37, 55, 36 , 28 ,9, 10, N, Yes, , ,  
05/19/2012 21:27, 55, 35 , 28 ,7, 9, N, Yes, , ,  
05/19/2012 21:22, 56, 35 , 28 ,5, 7, N, Yes, , ,  
05/19/2012 21:16, 56, 34 , 28 ,6, 7, N, Yes, , ,  
05/19/2012 21:06, 57, 34 , 28 ,8, 9, N, Yes, , ,  
05/19/2012 20:58, 57, 33 , 28 ,8, 9, N, Yes, , ,  
05/19/2012 20:56, 57, 33 , 28 ,8, 12, N, Yes, , ,  
05/19/2012 20:46, 58, 32 , 28 ,14, 17, N, Yes, , ,  
05/19/2012 20:36, 59, 32 , 29 ,9, 10, N, Yes, , ,  
05/19/2012 20:34, 59, 32 , 29 ,13, 14, N, Yes, , ,  
05/19/2012 20:25, 60, 31 , 29 ,9, 12, NE, Yes, , ,  
05/19/2012 20:15, 61, 31 , 30 ,12, 13, N, Yes, , ,  
05/19/2012 20:05, 61, 31 , 30 ,11, 12, NE, Yes, , ,  
05/19/2012 19:59, 61, 31 , 30 ,14, 16, NE, Yes, , ,  
05/19/2012 19:55, 62, 30 , 30 ,14, 16, NE, Yes, , ,  
05/19/2012 19:45, 63, 30 , 31 ,6, 7, W, Yes, , ,  
05/19/2012 19:33, 64, 30 , 32 ,0, 2, N, Yes, , ,  
05/19/2012 19:24, 64, 30 , 32 ,2, 4, NW, Yes, , ,  
05/19/2012 19:14, 64, 30 , 32 ,1, 4, NE, Yes, , ,  
05/19/2012 19:05, 63, 31 , 32 ,4, 6, NE, Yes, , ,  
05/19/2012 18:54, 63, 31 , 32 ,4, 5, E, Yes, , ,  
05/19/2012 18:44, 63, 31 , 32 ,3, 4, E, Yes, , ,  
05/19/2012 18:33, 61, 31 , 30 ,0, 1, S, Yes, , ,  
05/19/2012 18:23, 61, 31 , 30 ,1, 2, SE, Yes, , ,  
05/19/2012 18:14, 62, 31 , 30 ,4, 4, NE, Yes, , ,  
05/19/2012 18:13, 61, 31 , 30 ,3, 4, NE, Yes, , ,  
05/19/2012 18:03, 62, 31 , 31 ,4, 4, NE, Yes, , ,  
05/19/2012 17:59, 62, 31 , 31 ,3, 6, S, Yes, , ,  
05/19/2012 17:53, 61, 31 , 30 ,8, 9, NE, Yes, , ,  
05/19/2012 17:42, 62, 31 , 31 ,2, 4, NW, Yes, , ,  
05/19/2012 17:32, 61, 31 , 30 ,2, 3, E, Yes, , ,  
05/19/2012 17:23, 61, 31 , 30 ,6, 7, NE, Yes, , ,  
05/19/2012 17:22, 61, 31 , 30 ,8, 11, NE, Yes, , ,  
05/19/2012 17:12, 61, 31 , 30 ,1, 2, N, Yes, , ,  
05/19/2012 17:03, 61, 31 , 30 ,5, 6, E, Yes, , ,  
05/19/2012 16:52, 60, 32 , 30 ,6, 9, SW, Yes, , ,  
05/19/2012 16:50, 60, 32 , 30 ,6, 7, SW, Yes, , ,  
05/19/2012 16:42, 60, 31 , 29 ,7, 9, E, Yes, , ,  
05/19/2012 16:31, 62, 31 , 31 ,7, 12, S, Yes, , ,  
05/19/2012 16:21, 61, 31 , 30 ,7, 9, E, Yes, , ,  
05/19/2012 16:11, 60, 31 , 29 ,10, 12, S, Yes, , ,  
05/19/2012 16:06, 60, 31 , 29 ,3, 4, NW, Yes, , ,  
05/19/2012 16:01, 60, 31 , 29 ,7, 9, NE, Yes, , ,  
05/19/2012 15:51, 60, 31 , 29 ,11, 13, N, Yes, , ,  
05/19/2012 15:41, 60, 31 , 29 ,4, 9, N, Yes, , ,  
05/19/2012 15:30, 60, 30 , 28 ,12, 14, W, Yes, , ,  
05/19/2012 15:19, 61, 30 , 29 ,6, 7, W, Yes, , ,  
05/19/2012 15:10, 60, 30 , 28 ,9, 11, W, Yes, , ,  
05/19/2012 15:00, 60, 30 , 29 ,2, 3, W, Yes, , ,  
05/19/2012 14:49, 60, 30 , 28 ,6, 11, NW, Yes, , ,  
05/19/2012 14:39, 60, 30 , 28 ,9, 19, N, Yes, , ,  
05/19/2012 14:29, 59, 30 , 27 ,14, 16, NW, Yes, , ,  
05/19/2012 14:23, 60, 29 , 27 ,19, 24, N, Yes, , ,  
05/19/2012 14:19, 61, 29 , 28 ,21, 24, NW, Yes, , ,  
05/19/2012 14:09, 61, 29 , 28 ,9, 11, N, Yes, , ,  
05/19/2012 13:59, 62, 28 , 28 ,9, 11, N, Yes, , ,  
05/19/2012 13:57, 62, 28 , 28 ,10, 13, NE, Yes, , ,  
05/19/2012 13:48, 61, 29 , 28 ,9, 11, S, Yes, , ,  
05/19/2012 13:39, 61, 29 , 29 ,12, 14, W, Yes, , ,  
05/19/2012 13:38, 61, 28 , 28 ,7, 10, W, Yes, , ,  
05/19/2012 13:28, 63, 29 , 30 ,9, 11, W, Yes, , ,  
05/19/2012 13:19, 63, 29 , 30 ,7, 10, SW, Yes, , ,  
05/19/2012 13:18, 63, 29 , 30 ,7, 11, S, Yes, , ,  
05/19/2012 13:12, 62, 29 , 29 ,3, 4, S, Yes, , ,  
05/19/2012 13:08, 62, 29 , 29 ,4, 7, NE, Yes, , ,  
05/19/2012 12:57, 61, 30 , 29 ,6, 8, SE, Yes, , ,  
05/19/2012 12:47, 60, 30 , 28 ,7, 8, S, Yes, , ,  
05/19/2012 12:41, 60, 30 , 28 ,4, 6, E, Yes, , ,  
05/19/2012 12:37, 60, 30 , 29 ,9, 12, E, Yes, , ,  
05/19/2012 12:27, 62, 31 , 30 ,7, 10, NE, Yes, , ,  
05/19/2012 12:17, 60, 31 , 29 ,11, 15, E, Yes, , ,  
05/19/2012 12:11, 60, 31 , 29 ,12, 14, E, Yes, , ,  
05/19/2012 12:06, 61, 32 , 30 ,7, 9, S, Yes, , ,  
05/19/2012 12:01, 60, 32 , 30 ,9, 10, E, Yes, , ,  
05/19/2012 11:56, 59, 32 , 29 ,7, 11, NE, Yes, , ,  
05/19/2012 11:46, 59, 32 , 29 ,9, 12, SE, Yes, , ,  
05/19/2012 11:45, 59, 32 , 29 ,9, 11, E, Yes, , ,  
05/19/2012 11:36, 58, 33 , 29 ,7, 9, E, Yes, , ,  
05/19/2012 11:26, 57, 33 , 28 ,11, 12, E, Yes, , ,  
05/19/2012 11:15, 58, 33 , 29 ,9, 11, E, Yes, , ,  
05/19/2012 11:06, 58, 34 , 29 ,6, 7, E, Yes, , ,  
05/19/2012 10:55, 57, 35 , 29 ,10, 12, SE, Yes, , ,  
05/19/2012 10:54, 57, 35 , 30 ,7, 9, E, Yes, , ,  
05/19/2012 10:46, 56, 36 , 30 ,11, 12, SE, Yes, , ,  
05/19/2012 10:45, 56, 36 , 30 ,11, 12, E, Yes, , ,  
05/19/2012 10:35, 56, 36 , 29 ,10, 11, SE, Yes, , ,  
05/19/2012 10:24, 56, 37 , 30 ,11, 12, SE, Yes, , ,  
05/19/2012 10:21, 55, 38 , 30 ,10, 12, SE, Yes, , ,  
05/19/2012 10:14, 54, 38 , 29 ,10, 12, E, Yes, , ,  
05/19/2012 10:03, 54, 39 , 29 ,8, 11, SE, Yes, , ,  
05/19/2012 09:54, 54, 40 , 30 ,9, 10, SE, Yes, , ,  
05/19/2012 09:49, 54, 41 , 31 ,7, 9, SE, Yes, , ,  
05/19/2012 09:43, 53, 42 , 31 ,7, 9, E, Yes, , ,  
05/19/2012 09:34, 52, 44 , 31 ,9, 12, SE, Yes, , ,  
05/19/2012 09:23, 52, 45 , 31 ,3, 5, SE, Yes, , ,  
05/19/2012 09:21, 52, 46 , 32 ,6, 9, SE, Yes, , ,  
05/19/2012 09:19, 52, 46 , 32 ,2, 4, E, Yes, , ,  
05/19/2012 09:13, 51, 47 , 32 ,4, 7, SE, Yes, , ,  
05/19/2012 09:06, 50, 51 , 32 ,1, 3, SW, Yes, , ,  
05/19/2012 09:03, 50, 52 , 33 ,0, 0, W, Yes, , ,  
05/19/2012 08:52, 49, 54 , 33 ,0, 1, SE, Yes, , ,  
05/19/2012 08:44, 47, 57 , 32 ,0, 1, SW, Yes, , ,  
05/19/2012 08:42, 46, 57 , 32 ,0, 0, W, Yes, , ,  
05/19/2012 08:34, 45, 60 , 32 ,0, 0, NW, Yes, , ,  
05/19/2012 08:32, 44, 60 , 31 ,1, 1, N, Yes, , ,  
05/19/2012 08:22, 44, 61 , 32 ,0, 0, NW, Yes, , ,  
Change End Date:
Copyright © 1998-2005 Surface Systems, Inc.
All Rights Reserved
Send comments about the data to:
SCAN Web ® is a registered trademark of Surface Systems, Inc.
SCAN Web Version 5.6